Terminal Aerodrome Forecast
Issued by NWS Milwaukee/Sullivan, WI

Home | Current Version | Previous Version | Text Only | Print | Product List | Glossary On
Versions: 1 2 3 4 5 6 7 8 9 10 11 12 13 14 15 16 17 18 19 20 21 22 23 24 25 26 27 28 29 30 31 32 33 34 35 36 37 38 39 40 41 42 43 44
000
FTUS43 KMKX 301735
TAFMSN
TAF
KMSN 301735Z 3018/0118 06008KT P6SM OVC014
     FM302000 09007KT P6SM SCT020
     FM010000 10005KT P6SM SCT020
     FM010700 13004KT P6SM BKN025
     FM011400 14010KT P6SM BKN025
     FM011600 14010KT P6SM SCT025 BKN250=

USA.gov is the U.S. government's official web portal to all federal, state and local government web resources and services.